sensor_id;sensor_type;location;lat;lon;timestamp;temperature;humidity
41756;DHT22;27435;48.480;9.258;2023-08-20T00:00:14;20.70;99.00
41756;DHT22;27435;48.480;9.258;2023-08-20T00:02:45;20.80;99.00
41756;DHT22;27435;48.480;9.258;2023-08-20T00:05:12;20.70;99.00
41756;DHT22;27435;48.480;9.258;2023-08-20T00:07:38;20.60;99.00
41756;DHT22;27435;48.480;9.258;2023-08-20T00:10:04;20.60;99.00
41756;DHT22;27435;48.480;9.258;2023-08-20T00:12:31;20.50;99.00
41756;DHT22;27435;48.480;9.258;2023-08-20T00:15:01;20.40;99.00
41756;DHT22;27435;48.480;9.258;2023-08-20T00:17:34;20.40;99.00
41756;DHT22;27435;48.480;9.258;2023-08-20T00:20:01;20.40;99.00
41756;DHT22;27435;48.480;9.258;2023-08-20T00:22:27;20.30;99.00
41756;DHT22;27435;48.480;9.258;2023-08-20T00:24:53;20.40;99.00
41756;DHT22;27435;48.480;9.258;2023-08-20T00:27:20;20.60;99.00
41756;DHT22;27435;48.480;9.258;2023-08-20T00:29:45;20.80;99.00
41756;DHT22;27435;48.480;9.258;2023-08-20T00:32:11;20.80;99.00
41756;DHT22;27435;48.480;9.258;2023-08-20T00:34:37;20.60;99.00
41756;DHT22;27435;48.480;9.258;2023-08-20T00:37:03;20.50;99.00
41756;DHT22;27435;48.480;9.258;2023-08-20T00:39:29;20.40;99.00
41756;DHT22;27435;48.480;9.258;2023-08-20T00:41:55;20.50;99.00
41756;DHT22;27435;48.480;9.258;2023-08-20T00:44:21;20.30;99.00
41756;DHT22;27435;48.480;9.258;2023-08-20T00:46:46;20.20;99.00
41756;DHT22;27435;48.480;9.258;2023-08-20T00:49:13;20.30;99.00
41756;DHT22;27435;48.480;9.258;2023-08-20T00:51:38;20.40;99.00
41756;DHT22;27435;48.480;9.258;2023-08-20T00:54:04;20.40;99.00
41756;DHT22;27435;48.480;9.258;2023-08-20T00:56:30;20.30;99.00
41756;DHT22;27435;48.480;9.258;2023-08-20T00:58:57;20.20;99.00
41756;DHT22;27435;48.480;9.258;2023-08-20T01:01:23;20.20;99.00
41756;DHT22;27435;48.480;9.258;2023-08-20T01:03:48;20.10;99.00
41756;DHT22;27435;48.480;9.258;2023-08-20T01:08:45;20.00;99.00
41756;DHT22;27435;48.480;9.258;2023-08-20T01:11:17;20.00;99.00
41756;DHT22;27435;48.480;9.258;2023-08-20T01:13:46;20.00;99.00
41756;DHT22;27435;48.480;9.258;2023-08-20T01:16:11;19.90;99.00
41756;DHT22;27435;48.480;9.258;2023-08-20T01:18:37;19.90;99.00
41756;DHT22;27435;48.480;9.258;2023-08-20T01:21:14;20.00;99.00
41756;DHT22;27435;48.480;9.258;2023-08-20T01:24:01;20.10;99.00
41756;DHT22;27435;48.480;9.258;2023-08-20T01:29:23;20.20;99.00
41756;DHT22;27435;48.480;9.258;2023-08-20T01:31:50;20.00;99.00
41756;DHT22;27435;48.480;9.258;2023-08-20T01:34:16;19.90;99.00
41756;DHT22;27435;48.480;9.258;2023-08-20T01:36:42;19.90;99.00
41756;DHT22;27435;48.480;9.258;2023-08-20T01:39:07;19.80;99.00
41756;DHT22;27435;48.480;9.258;2023-08-20T01:41:33;19.80;99.00
41756;DHT22;27435;48.480;9.258;2023-08-20T01:43:59;19.70;99.00
41756;DHT22;27435;48.480;9.258;2023-08-20T01:46:24;19.80;99.00
41756;DHT22;27435;48.480;9.258;2023-08-20T01:48:50;19.80;99.00
41756;DHT22;27435;48.480;9.258;2023-08-20T01:51:15;19.80;99.00
41756;DHT22;27435;48.480;9.258;2023-08-20T01:53:41;19.80;99.00
41756;DHT22;27435;48.480;9.258;2023-08-20T01:56:13;19.90;99.00
41756;DHT22;27435;48.480;9.258;2023-08-20T01:58:39;20.10;99.00
41756;DHT22;27435;48.480;9.258;2023-08-20T02:01:05;20.00;99.00
41756;DHT22;27435;48.480;9.258;2023-08-20T02:03:31;19.80;99.00
41756;DHT22;27435;48.480;9.258;2023-08-20T02:05:57;19.80;99.00
41756;DHT22;27435;48.480;9.258;2023-08-20T02:08:23;19.90;99.00
41756;DHT22;27435;48.480;9.258;2023-08-20T02:10:48;19.90;99.00
41756;DHT22;27435;48.480;9.258;2023-08-20T02:13:14;19.80;99.00
41756;DHT22;27435;48.480;9.258;2023-08-20T02:15:39;19.70;99.00
41756;DHT22;27435;48.480;9.258;2023-08-20T02:18:05;19.70;99.00
41756;DHT22;27435;48.480;9.258;2023-08-20T02:20:31;19.60;99.00
41756;DHT22;27435;48.480;9.258;2023-08-20T02:22:56;19.60;99.00
41756;DHT22;27435;48.480;9.258;2023-08-20T02:25:23;19.60;99.00
41756;DHT22;27435;48.480;9.258;2023-08-20T02:27:49;19.70;99.00
41756;DHT22;27435;48.480;9.258;2023-08-20T02:30:14;19.70;99.00
41756;DHT22;27435;48.480;9.258;2023-08-20T02:32:40;19.80;99.00
41756;DHT22;27435;48.480;9.258;2023-08-20T02:35:06;19.70;99.00
41756;DHT22;27435;48.480;9.258;2023-08-20T02:37:32;19.60;99.00
41756;DHT22;27435;48.480;9.258;2023-08-20T02:39:58;19.60;99.00
41756;DHT22;27435;48.480;9.258;2023-08-20T02:42:23;19.70;99.00
41756;DHT22;27435;48.480;9.258;2023-08-20T02:44:49;19.60;99.00
41756;DHT22;27435;48.480;9.258;2023-08-20T02:47:15;19.50;99.00
41756;DHT22;27435;48.480;9.258;2023-08-20T02:49:40;19.40;99.00
41756;DHT22;27435;48.480;9.258;2023-08-20T02:52:06;19.50;99.00
41756;DHT22;27435;48.480;9.258;2023-08-20T02:54:31;19.60;99.00
41756;DHT22;27435;48.480;9.258;2023-08-20T02:56:58;19.70;99.00
41756;DHT22;27435;48.480;9.258;2023-08-20T02:59:24;19.70;99.00
41756;DHT22;27435;48.480;9.258;2023-08-20T03:01:49;19.70;99.00
41756;DHT22;27435;48.480;9.258;2023-08-20T03:04:15;19.70;99.00
41756;DHT22;27435;48.480;9.258;2023-08-20T03:06:41;19.70;99.00
41756;DHT22;27435;48.480;9.258;2023-08-20T03:09:07;19.70;99.00
41756;DHT22;27435;48.480;9.258;2023-08-20T03:11:33;19.60;99.00
41756;DHT22;27435;48.480;9.258;2023-08-20T03:13:58;19.40;99.00
41756;DHT22;27435;48.480;9.258;2023-08-20T03:16:24;19.40;99.00
41756;DHT22;27435;48.480;9.258;2023-08-20T03:18:49;19.40;99.00
41756;DHT22;27435;48.480;9.258;2023-08-20T03:21:15;19.30;99.00
41756;DHT22;27435;48.480;9.258;2023-08-20T03:23:41;19.20;99.00
41756;DHT22;27435;48.480;9.258;2023-08-20T03:26:06;19.20;99.00
41756;DHT22;27435;48.480;9.258;2023-08-20T03:28:32;19.20;99.00
41756;DHT22;27435;48.480;9.258;2023-08-20T03:31:00;19.30;99.00
41756;DHT22;27435;48.480;9.258;2023-08-20T03:33:26;19.20;99.00
41756;DHT22;27435;48.480;9.258;2023-08-20T03:35:52;19.30;99.00
41756;DHT22;27435;48.480;9.258;2023-08-20T03:38:17;19.30;99.00
41756;DHT22;27435;48.480;9.258;2023-08-20T03:40:43;19.30;99.00
41756;DHT22;27435;48.480;9.258;2023-08-20T03:43:10;19.30;99.00
41756;DHT22;27435;48.480;9.258;2023-08-20T03:45:36;19.40;99.00
41756;DHT22;27435;48.480;9.258;2023-08-20T03:48:01;19.50;99.00
41756;DHT22;27435;48.480;9.258;2023-08-20T03:50:27;19.40;99.00
41756;DHT22;27435;48.480;9.258;2023-08-20T03:52:53;19.20;99.00
41756;DHT22;27435;48.480;9.258;2023-08-20T03:55:18;19.10;99.00
41756;DHT22;27435;48.480;9.258;2023-08-20T03:57:44;19.00;99.00
41756;DHT22;27435;48.480;9.258;2023-08-20T04:00:10;19.00;99.00
41756;DHT22;27435;48.480;9.258;2023-08-20T04:02:37;19.00;99.00
41756;DHT22;27435;48.480;9.258;2023-08-20T04:05:04;19.00;99.00
41756;DHT22;27435;48.480;9.258;2023-08-20T04:07:30;19.00;99.00
41756;DHT22;27435;48.480;9.258;2023-08-20T04:09:55;19.00;99.00
41756;DHT22;27435;48.480;9.258;2023-08-20T04:12:21;19.10;99.00
41756;DHT22;27435;48.480;9.258;2023-08-20T04:14:46;19.10;99.00
41756;DHT22;27435;48.480;9.258;2023-08-20T04:17:12;19.00;99.00
41756;DHT22;27435;48.480;9.258;2023-08-20T04:19:38;19.00;99.00
41756;DHT22;27435;48.480;9.258;2023-08-20T04:22:03;19.00;99.00
41756;DHT22;27435;48.480;9.258;2023-08-20T04:24:29;19.30;99.00
41756;DHT22;27435;48.480;9.258;2023-08-20T04:26:54;19.30;99.00
41756;DHT22;27435;48.480;9.258;2023-08-20T04:29:20;19.20;99.00
41756;DHT22;27435;48.480;9.258;2023-08-20T04:31:45;19.20;99.00
41756;DHT22;27435;48.480;9.258;2023-08-20T04:34:11;19.30;99.00
41756;DHT22;27435;48.480;9.258;2023-08-20T04:36:37;19.30;99.00
41756;DHT22;27435;48.480;9.258;2023-08-20T04:39:02;19.30;99.00
41756;DHT22;27435;48.480;9.258;2023-08-20T04:41:29;19.30;99.00
41756;DHT22;27435;48.480;9.258;2023-08-20T04:43:55;19.20;99.00
41756;DHT22;27435;48.480;9.258;2023-08-20T04:46:21;19.30;99.00
41756;DHT22;27435;48.480;9.258;2023-08-20T04:48:46;19.10;99.00
41756;DHT22;27435;48.480;9.258;2023-08-20T04:51:12;19.10;99.00
41756;DHT22;27435;48.480;9.258;2023-08-20T04:53:37;19.10;99.00
41756;DHT22;27435;48.480;9.258;2023-08-20T04:56:03;19.20;99.00
41756;DHT22;27435;48.480;9.258;2023-08-20T04:58:29;19.20;99.00
41756;DHT22;27435;48.480;9.258;2023-08-20T05:00:54;19.20;99.00
41756;DHT22;27435;48.480;9.258;2023-08-20T05:03:20;19.30;99.00
41756;DHT22;27435;48.480;9.258;2023-08-20T05:05:49;19.60;99.00
41756;DHT22;27435;48.480;9.258;2023-08-20T05:08:15;19.60;99.00
41756;DHT22;27435;48.480;9.258;2023-08-20T05:10:41;19.70;99.00
41756;DHT22;27435;48.480;9.258;2023-08-20T05:13:07;19.70;99.00
41756;DHT22;27435;48.480;9.258;2023-08-20T05:15:33;19.80;99.00
41756;DHT22;27435;48.480;9.258;2023-08-20T05:17:59;19.80;99.00
41756;DHT22;27435;48.480;9.258;2023-08-20T05:20:25;19.90;99.00
41756;DHT22;27435;48.480;9.258;2023-08-20T05:22:51;19.90;99.00
41756;DHT22;27435;48.480;9.258;2023-08-20T05:25:16;20.00;99.00
41756;DHT22;27435;48.480;9.258;2023-08-20T05:27:42;20.00;99.00
41756;DHT22;27435;48.480;9.258;2023-08-20T05:30:08;19.90;99.00
41756;DHT22;27435;48.480;9.258;2023-08-20T05:32:34;19.80;99.00
41756;DHT22;27435;48.480;9.258;2023-08-20T05:34:59;19.80;99.00
41756;DHT22;27435;48.480;9.258;2023-08-20T05:37:25;19.90;99.00
41756;DHT22;27435;48.480;9.258;2023-08-20T05:39:50;20.10;99.00
41756;DHT22;27435;48.480;9.258;2023-08-20T05:42:16;20.20;99.00
41756;DHT22;27435;48.480;9.258;2023-08-20T05:44:42;20.30;99.00
41756;DHT22;27435;48.480;9.258;2023-08-20T05:47:07;20.40;99.00
41756;DHT22;27435;48.480;9.258;2023-08-20T05:49:33;20.60;99.00
41756;DHT22;27435;48.480;9.258;2023-08-20T05:51:59;20.60;99.00
41756;DHT22;27435;48.480;9.258;2023-08-20T05:54:24;20.70;99.00
41756;DHT22;27435;48.480;9.258;2023-08-20T05:56:50;20.90;99.00
41756;DHT22;27435;48.480;9.258;2023-08-20T05:59:15;21.00;99.00
41756;DHT22;27435;48.480;9.258;2023-08-20T06:01:41;20.70;99.00
41756;DHT22;27435;48.480;9.258;2023-08-20T06:04:08;20.70;99.00
41756;DHT22;27435;48.480;9.258;2023-08-20T06:06:35;20.60;99.00
41756;DHT22;27435;48.480;9.258;2023-08-20T06:09:00;20.70;99.00
41756;DHT22;27435;48.480;9.258;2023-08-20T06:11:26;20.90;99.00
41756;DHT22;27435;48.480;9.258;2023-08-20T06:13:51;21.20;99.00
41756;DHT22;27435;48.480;9.258;2023-08-20T06:16:17;21.40;99.00
41756;DHT22;27435;48.480;9.258;2023-08-20T06:18:43;21.70;99.00
41756;DHT22;27435;48.480;9.258;2023-08-20T06:21:08;22.00;99.00
41756;DHT22;27435;48.480;9.258;2023-08-20T06:23:34;22.20;99.00
41756;DHT22;27435;48.480;9.258;2023-08-20T06:25:59;22.40;99.00
41756;DHT22;27435;48.480;9.258;2023-08-20T06:28:25;22.50;99.00
41756;DHT22;27435;48.480;9.258;2023-08-20T06:30:50;22.60;99.00
41756;DHT22;27435;48.480;9.258;2023-08-20T06:33:16;22.60;99.00
41756;DHT22;27435;48.480;9.258;2023-08-20T06:35:42;22.60;99.00
41756;DHT22;27435;48.480;9.258;2023-08-20T06:38:07;22.70;99.00
41756;DHT22;27435;48.480;9.258;2023-08-20T06:40:33;22.60;99.00
41756;DHT22;27435;48.480;9.258;2023-08-20T06:42:59;22.60;99.00
41756;DHT22;27435;48.480;9.258;2023-08-20T06:45:24;22.90;99.00
41756;DHT22;27435;48.480;9.258;2023-08-20T06:47:50;23.10;99.00
41756;DHT22;27435;48.480;9.258;2023-08-20T06:50:16;23.30;99.00
41756;DHT22;27435;48.480;9.258;2023-08-20T06:52:42;23.60;99.00
41756;DHT22;27435;48.480;9.258;2023-08-20T06:55:08;24.10;99.00
41756;DHT22;27435;48.480;9.258;2023-08-20T06:57:33;24.30;99.00
41756;DHT22;27435;48.480;9.258;2023-08-20T06:59:59;24.20;99.00
41756;DHT22;27435;48.480;9.258;2023-08-20T07:02:25;24.10;99.00
41756;DHT22;27435;48.480;9.258;2023-08-20T07:04:50;24.30;99.00
41756;DHT22;27435;48.480;9.258;2023-08-20T07:07:16;24.40;99.00
41756;DHT22;27435;48.480;9.258;2023-08-20T07:09:41;24.70;99.00
41756;DHT22;27435;48.480;9.258;2023-08-20T07:12:07;24.90;99.00
41756;DHT22;27435;48.480;9.258;2023-08-20T07:14:33;24.90;99.00
41756;DHT22;27435;48.480;9.258;2023-08-20T07:16:59;24.90;99.00
41756;DHT22;27435;48.480;9.258;2023-08-20T07:19:25;24.90;99.00
41756;DHT22;27435;48.480;9.258;2023-08-20T07:21:51;25.00;99.00
41756;DHT22;27435;48.480;9.258;2023-08-20T07:24:17;25.20;99.00
41756;DHT22;27435;48.480;9.258;2023-08-20T07:26:43;25.40;99.00
41756;DHT22;27435;48.480;9.258;2023-08-20T07:29:09;25.60;99.00
41756;DHT22;27435;48.480;9.258;2023-08-20T07:31:35;25.70;99.00
41756;DHT22;27435;48.480;9.258;2023-08-20T07:34:02;25.90;98.60
41756;DHT22;27435;48.480;9.258;2023-08-20T07:36:28;26.10;98.20
41756;DHT22;27435;48.480;9.258;2023-08-20T07:38:54;26.10;97.40
41756;DHT22;27435;48.480;9.258;2023-08-20T07:41:20;26.20;97.10
41756;DHT22;27435;48.480;9.258;2023-08-20T07:43:47;26.20;97.00
41756;DHT22;27435;48.480;9.258;2023-08-20T07:46:14;26.30;97.00
41756;DHT22;27435;48.480;9.258;2023-08-20T07:48:40;26.40;96.10
41756;DHT22;27435;48.480;9.258;2023-08-20T07:51:06;26.20;96.40
41756;DHT22;27435;48.480;9.258;2023-08-20T07:53:32;26.00;96.80
41756;DHT22;27435;48.480;9.258;2023-08-20T07:56:02;25.90;97.80
41756;DHT22;27435;48.480;9.258;2023-08-20T07:58:28;25.70;98.90
41756;DHT22;27435;48.480;9.258;2023-08-20T08:00:55;25.70;99.00
41756;DHT22;27435;48.480;9.258;2023-08-20T08:03:21;25.60;99.00
41756;DHT22;27435;48.480;9.258;2023-08-20T08:05:48;25.80;99.00
41756;DHT22;27435;48.480;9.258;2023-08-20T08:08:15;25.80;99.00
41756;DHT22;27435;48.480;9.258;2023-08-20T08:10:41;26.00;99.00
41756;DHT22;27435;48.480;9.258;2023-08-20T08:13:10;26.00;98.50
41756;DHT22;27435;48.480;9.258;2023-08-20T08:15:35;26.30;97.90
41756;DHT22;27435;48.480;9.258;2023-08-20T08:18:01;26.50;97.20
41756;DHT22;27435;48.480;9.258;2023-08-20T08:20:27;26.60;96.90
41756;DHT22;27435;48.480;9.258;2023-08-20T08:22:53;26.80;96.50
41756;DHT22;27435;48.480;9.258;2023-08-20T08:25:18;26.80;95.90
41756;DHT22;27435;48.480;9.258;2023-08-20T08:27:44;26.60;96.60
41756;DHT22;27435;48.480;9.258;2023-08-20T08:30:11;26.30;97.80
41756;DHT22;27435;48.480;9.258;2023-08-20T08:32:37;26.30;97.90
41756;DHT22;27435;48.480;9.258;2023-08-20T08:35:02;26.50;97.90
41756;DHT22;27435;48.480;9.258;2023-08-20T08:37:28;26.60;97.80
41756;DHT22;27435;48.480;9.258;2023-08-20T08:39:54;26.70;96.90
41756;DHT22;27435;48.480;9.258;2023-08-20T08:42:22;26.80;96.30
41756;DHT22;27435;48.480;9.258;2023-08-20T08:44:50;27.00;95.80
41756;DHT22;27435;48.480;9.258;2023-08-20T08:47:16;26.90;96.10
41756;DHT22;27435;48.480;9.258;2023-08-20T08:49:42;27.00;94.50
41756;DHT22;27435;48.480;9.258;2023-08-20T08:52:10;27.20;93.90
41756;DHT22;27435;48.480;9.258;2023-08-20T08:54:36;27.10;93.90
41756;DHT22;27435;48.480;9.258;2023-08-20T08:57:02;27.10;94.10
41756;DHT22;27435;48.480;9.258;2023-08-20T08:59:28;27.00;94.80
41756;DHT22;27435;48.480;9.258;2023-08-20T09:01:54;26.90;94.40
41756;DHT22;27435;48.480;9.258;2023-08-20T09:04:22;27.00;93.80
41756;DHT22;27435;48.480;9.258;2023-08-20T09:06:52;27.20;92.40
41756;DHT22;27435;48.480;9.258;2023-08-20T09:09:20;27.30;92.50
41756;DHT22;27435;48.480;9.258;2023-08-20T09:11:47;27.30;91.70
41756;DHT22;27435;48.480;9.258;2023-08-20T09:14:29;27.20;91.10
41756;DHT22;27435;48.480;9.258;2023-08-20T09:16:59;27.00;91.10
41756;DHT22;27435;48.480;9.258;2023-08-20T09:19:28;27.00;92.90
41756;DHT22;27435;48.480;9.258;2023-08-20T09:21:55;27.00;92.10
41756;DHT22;27435;48.480;9.258;2023-08-20T09:24:52;27.20;91.40
41756;DHT22;27435;48.480;9.258;2023-08-20T09:27:18;27.40;90.20
41756;DHT22;27435;48.480;9.258;2023-08-20T09:29:47;27.50;88.60
41756;DHT22;27435;48.480;9.258;2023-08-20T09:32:17;27.50;90.50
41756;DHT22;27435;48.480;9.258;2023-08-20T09:34:44;27.40;90.30
41756;DHT22;27435;48.480;9.258;2023-08-20T09:37:13;27.70;90.70
41756;DHT22;27435;48.480;9.258;2023-08-20T09:39:39;27.60;89.70
41756;DHT22;27435;48.480;9.258;2023-08-20T09:42:06;27.60;89.60
41756;DHT22;27435;48.480;9.258;2023-08-20T09:44:36;27.80;89.80
41756;DHT22;27435;48.480;9.258;2023-08-20T09:47:05;27.90;89.10
41756;DHT22;27435;48.480;9.258;2023-08-20T09:49:36;27.80;88.90
41756;DHT22;27435;48.480;9.258;2023-08-20T09:52:04;27.80;88.70
41756;DHT22;27435;48.480;9.258;2023-08-20T09:55:08;27.80;89.40
41756;DHT22;27435;48.480;9.258;2023-08-20T09:57:37;28.00;88.40
41756;DHT22;27435;48.480;9.258;2023-08-20T10:00:04;28.20;88.00
41756;DHT22;27435;48.480;9.258;2023-08-20T10:02:37;28.20;88.30
41756;DHT22;27435;48.480;9.258;2023-08-20T10:05:05;28.10;88.70
41756;DHT22;27435;48.480;9.258;2023-08-20T10:07:31;28.10;87.70
41756;DHT22;27435;48.480;9.258;2023-08-20T10:10:00;28.20;88.10
41756;DHT22;27435;48.480;9.258;2023-08-20T10:12:27;28.20;87.60
41756;DHT22;27435;48.480;9.258;2023-08-20T10:14:54;28.40;86.30
41756;DHT22;27435;48.480;9.258;2023-08-20T10:17:19;28.50;85.10
41756;DHT22;27435;48.480;9.258;2023-08-20T10:19:47;28.50;83.90
41756;DHT22;27435;48.480;9.258;2023-08-20T10:22:13;28.60;84.00
41756;DHT22;27435;48.480;9.258;2023-08-20T10:24:47;28.90;83.20
41756;DHT22;27435;48.480;9.258;2023-08-20T10:27:24;29.00;82.70
41756;DHT22;27435;48.480;9.258;2023-08-20T10:29:55;29.30;79.80
41756;DHT22;27435;48.480;9.258;2023-08-20T10:32:47;29.30;80.40
41756;DHT22;27435;48.480;9.258;2023-08-20T10:35:17;29.40;81.30
41756;DHT22;27435;48.480;9.258;2023-08-20T10:40:58;29.20;80.60
41756;DHT22;27435;48.480;9.258;2023-08-20T10:43:34;29.20;81.00
41756;DHT22;27435;48.480;9.258;2023-08-20T10:48:39;29.70;80.10
41756;DHT22;27435;48.480;9.258;2023-08-20T10:51:19;29.60;80.70
41756;DHT22;27435;48.480;9.258;2023-08-20T10:54:09;29.40;81.80
41756;DHT22;27435;48.480;9.258;2023-08-20T10:56:46;29.40;80.70
41756;DHT22;27435;48.480;9.258;2023-08-20T10:59:26;29.70;79.00
41756;DHT22;27435;48.480;9.258;2023-08-20T11:01:53;29.80;77.80
41756;DHT22;27435;48.480;9.258;2023-08-20T11:04:23;29.70;78.10
41756;DHT22;27435;48.480;9.258;2023-08-20T11:06:56;29.70;78.40
41756;DHT22;27435;48.480;9.258;2023-08-20T11:09:23;29.90;77.10
41756;DHT22;27435;48.480;9.258;2023-08-20T11:11:50;30.00;76.20
41756;DHT22;27435;48.480;9.258;2023-08-20T11:14:18;30.10;76.10
41756;DHT22;27435;48.480;9.258;2023-08-20T11:16:45;30.10;75.90
41756;DHT22;27435;48.480;9.258;2023-08-20T11:19:12;30.30;75.60
41756;DHT22;27435;48.480;9.258;2023-08-20T11:21:38;30.60;74.00
41756;DHT22;27435;48.480;9.258;2023-08-20T11:24:05;30.50;74.20
41756;DHT22;27435;48.480;9.258;2023-08-20T11:26:32;30.40;74.40
41756;DHT22;27435;48.480;9.258;2023-08-20T11:28:58;30.50;73.60
41756;DHT22;27435;48.480;9.258;2023-08-20T11:31:23;30.50;72.90
41756;DHT22;27435;48.480;9.258;2023-08-20T11:33:50;30.50;72.80
41756;DHT22;27435;48.480;9.258;2023-08-20T11:36:16;30.40;72.70
41756;DHT22;27435;48.480;9.258;2023-08-20T11:38:48;30.40;72.60
41756;DHT22;27435;48.480;9.258;2023-08-20T11:41:14;30.70;71.10
41756;DHT22;27435;48.480;9.258;2023-08-20T11:43:41;30.90;71.60
41756;DHT22;27435;48.480;9.258;2023-08-20T11:46:19;31.10;71.40
41756;DHT22;27435;48.480;9.258;2023-08-20T11:49:04;31.30;71.30
41756;DHT22;27435;48.480;9.258;2023-08-20T11:51:30;31.30;71.60
41756;DHT22;27435;48.480;9.258;2023-08-20T11:54:00;31.20;71.90
41756;DHT22;27435;48.480;9.258;2023-08-20T11:56:27;31.20;71.90
41756;DHT22;27435;48.480;9.258;2023-08-20T11:58:58;31.40;71.30
41756;DHT22;27435;48.480;9.258;2023-08-20T12:01:23;31.50;70.30
41756;DHT22;27435;48.480;9.258;2023-08-20T12:03:49;31.60;69.80
41756;DHT22;27435;48.480;9.258;2023-08-20T12:06:19;31.40;70.70
41756;DHT22;27435;48.480;9.258;2023-08-20T12:08:45;31.30;70.90
41756;DHT22;27435;48.480;9.258;2023-08-20T12:11:10;31.20;70.60
41756;DHT22;27435;48.480;9.258;2023-08-20T12:13:36;31.20;71.40
41756;DHT22;27435;48.480;9.258;2023-08-20T12:16:02;31.70;69.40
41756;DHT22;27435;48.480;9.258;2023-08-20T12:18:27;31.80;68.80
41756;DHT22;27435;48.480;9.258;2023-08-20T12:20:54;31.90;68.10
41756;DHT22;27435;48.480;9.258;2023-08-20T12:23:20;31.80;68.30
41756;DHT22;27435;48.480;9.258;2023-08-20T12:25:50;31.80;67.70
41756;DHT22;27435;48.480;9.258;2023-08-20T12:28:16;31.70;69.00
41756;DHT22;27435;48.480;9.258;2023-08-20T12:30:41;31.90;68.40
41756;DHT22;27435;48.480;9.258;2023-08-20T12:33:07;32.30;67.70
41756;DHT22;27435;48.480;9.258;2023-08-20T12:35:33;32.40;67.30
41756;DHT22;27435;48.480;9.258;2023-08-20T12:37:58;32.40;66.60
41756;DHT22;27435;48.480;9.258;2023-08-20T12:40:24;32.30;67.10
41756;DHT22;27435;48.480;9.258;2023-08-20T12:42:50;32.70;67.00
41756;DHT22;27435;48.480;9.258;2023-08-20T12:45:15;32.80;66.00
41756;DHT22;27435;48.480;9.258;2023-08-20T12:47:41;32.70;66.30
41756;DHT22;27435;48.480;9.258;2023-08-20T12:50:07;32.70;66.50
41756;DHT22;27435;48.480;9.258;2023-08-20T12:52:33;32.80;67.00
41756;DHT22;27435;48.480;9.258;2023-08-20T12:54:59;32.60;67.00
41756;DHT22;27435;48.480;9.258;2023-08-20T12:57:24;32.80;66.60
41756;DHT22;27435;48.480;9.258;2023-08-20T12:59:50;32.70;65.90
41756;DHT22;27435;48.480;9.258;2023-08-20T13:02:15;32.80;66.70
41756;DHT22;27435;48.480;9.258;2023-08-20T13:04:41;32.90;65.50
41756;DHT22;27435;48.480;9.258;2023-08-20T13:07:07;32.80;66.10
41756;DHT22;27435;48.480;9.258;2023-08-20T13:09:33;33.00;66.00
41756;DHT22;27435;48.480;9.258;2023-08-20T13:12:01;33.20;65.50
41756;DHT22;27435;48.480;9.258;2023-08-20T13:14:29;33.20;65.10
41756;DHT22;27435;48.480;9.258;2023-08-20T13:16:55;33.20;64.80
41756;DHT22;27435;48.480;9.258;2023-08-20T13:19:22;33.30;65.40
41756;DHT22;27435;48.480;9.258;2023-08-20T13:21:47;33.50;64.70
41756;DHT22;27435;48.480;9.258;2023-08-20T13:24:13;33.50;64.20
41756;DHT22;27435;48.480;9.258;2023-08-20T13:26:39;33.70;64.00
41756;DHT22;27435;48.480;9.258;2023-08-20T13:29:05;33.50;63.90
41756;DHT22;27435;48.480;9.258;2023-08-20T13:31:30;33.20;64.60
41756;DHT22;27435;48.480;9.258;2023-08-20T13:33:56;33.60;63.70
41756;DHT22;27435;48.480;9.258;2023-08-20T13:36:21;33.80;63.40
41756;DHT22;27435;48.480;9.258;2023-08-20T13:38:47;33.70;63.30
41756;DHT22;27435;48.480;9.258;2023-08-20T13:41:12;33.80;63.30
41756;DHT22;27435;48.480;9.258;2023-08-20T13:43:38;33.90;63.20
41756;DHT22;27435;48.480;9.258;2023-08-20T13:46:04;33.80;62.80
41756;DHT22;27435;48.480;9.258;2023-08-20T13:48:29;34.10;63.00
41756;DHT22;27435;48.480;9.258;2023-08-20T13:50:55;34.40;62.00
41756;DHT22;27435;48.480;9.258;2023-08-20T13:53:20;34.50;61.30
41756;DHT22;27435;48.480;9.258;2023-08-20T13:55:46;34.60;61.10
41756;DHT22;27435;48.480;9.258;2023-08-20T13:58:12;34.90;60.30
41756;DHT22;27435;48.480;9.258;2023-08-20T14:00:37;35.00;60.60
41756;DHT22;27435;48.480;9.258;2023-08-20T14:03:04;35.00;60.10
41756;DHT22;27435;48.480;9.258;2023-08-20T14:05:29;34.90;60.90
41756;DHT22;27435;48.480;9.258;2023-08-20T14:07:56;35.30;60.50
41756;DHT22;27435;48.480;9.258;2023-08-20T14:10:21;35.30;59.10
41756;DHT22;27435;48.480;9.258;2023-08-20T14:12:47;35.40;59.40
41756;DHT22;27435;48.480;9.258;2023-08-20T14:15:13;35.10;59.70
41756;DHT22;27435;48.480;9.258;2023-08-20T14:17:39;35.00;60.00
41756;DHT22;27435;48.480;9.258;2023-08-20T14:20:05;34.60;61.20
41756;DHT22;27435;48.480;9.258;2023-08-20T14:22:32;34.80;60.30
41756;DHT22;27435;48.480;9.258;2023-08-20T14:24:57;35.00;59.50
41756;DHT22;27435;48.480;9.258;2023-08-20T14:27:23;34.60;60.00
41756;DHT22;27435;48.480;9.258;2023-08-20T14:29:48;34.60;60.30
41756;DHT22;27435;48.480;9.258;2023-08-20T14:32:14;34.80;59.40
41756;DHT22;27435;48.480;9.258;2023-08-20T14:34:40;35.00;60.10
41756;DHT22;27435;48.480;9.258;2023-08-20T14:37:05;35.10;59.80
41756;DHT22;27435;48.480;9.258;2023-08-20T14:39:31;35.30;59.80
41756;DHT22;27435;48.480;9.258;2023-08-20T14:41:58;35.30;58.80
41756;DHT22;27435;48.480;9.258;2023-08-20T14:44:23;35.10;59.00
41756;DHT22;27435;48.480;9.258;2023-08-20T14:46:49;34.60;60.20
41756;DHT22;27435;48.480;9.258;2023-08-20T14:49:15;35.00;59.70
41756;DHT22;27435;48.480;9.258;2023-08-20T14:51:41;35.20;58.90
41756;DHT22;27435;48.480;9.258;2023-08-20T14:54:07;35.30;58.60
41756;DHT22;27435;48.480;9.258;2023-08-20T14:56:32;35.60;57.90
41756;DHT22;27435;48.480;9.258;2023-08-20T14:58:58;35.50;57.40
41756;DHT22;27435;48.480;9.258;2023-08-20T15:01:24;35.70;57.40
41756;DHT22;27435;48.480;9.258;2023-08-20T15:03:50;35.70;57.00
41756;DHT22;27435;48.480;9.258;2023-08-20T15:06:15;35.50;57.30
41756;DHT22;27435;48.480;9.258;2023-08-20T15:08:41;35.80;57.70
41756;DHT22;27435;48.480;9.258;2023-08-20T15:11:07;35.50;57.50
41756;DHT22;27435;48.480;9.258;2023-08-20T15:13:33;35.70;57.10
41756;DHT22;27435;48.480;9.258;2023-08-20T15:15:58;35.50;57.60
41756;DHT22;27435;48.480;9.258;2023-08-20T15:18:24;35.50;56.70
41756;DHT22;27435;48.480;9.258;2023-08-20T15:20:57;35.10;58.20
41756;DHT22;27435;48.480;9.258;2023-08-20T15:23:23;35.10;57.80
41756;DHT22;27435;48.480;9.258;2023-08-20T15:25:51;35.60;56.90
41756;DHT22;27435;48.480;9.258;2023-08-20T15:28:19;35.60;56.70
41756;DHT22;27435;48.480;9.258;2023-08-20T15:30:44;35.60;57.00
41756;DHT22;27435;48.480;9.258;2023-08-20T15:33:10;35.50;57.10
41756;DHT22;27435;48.480;9.258;2023-08-20T15:35:35;35.00;58.00
41756;DHT22;27435;48.480;9.258;2023-08-20T15:38:01;34.60;58.90